createdAt,value
2022-10-17T00:03:32.979Z,51.47
2022-10-17T00:06:07.513Z,49.83
2022-10-17T00:08:35.668Z,53.17
2022-10-17T00:11:05.917Z,52.63
2022-10-17T00:13:36.285Z,49.55
2022-10-17T00:16:04.676Z,54.55
2022-10-17T00:18:32.689Z,50.13
2022-10-17T00:21:00.737Z,50.53
2022-10-17T00:23:30.350Z,56.15
2022-10-17T00:26:02.354Z,50.03
2022-10-17T00:28:30.778Z,52.53
2022-10-17T00:31:01.870Z,48.35
2022-10-17T00:33:30.878Z,47.90
2022-10-17T00:36:09.954Z,48.65
2022-10-17T00:38:38.489Z,45.33
2022-10-17T00:41:07.570Z,42.63
2022-10-17T00:43:55.107Z,43.55
2022-10-17T00:46:29.461Z,42.25
2022-10-17T00:49:00.117Z,43.10
2022-10-17T00:51:33.850Z,42.60
2022-10-17T00:54:03.880Z,45.42
2022-10-17T00:56:32.944Z,44.28
2022-10-17T00:59:01.272Z,44.00
2022-10-17T01:01:30.909Z,42.08
2022-10-17T01:03:59.152Z,40.58
2022-10-17T01:06:27.797Z,44.67
2022-10-17T01:08:56.710Z,44.92
2022-10-17T01:11:34.525Z,41.95
2022-10-17T01:14:10.830Z,44.53
2022-10-17T01:16:52.038Z,42.47
2022-10-17T01:19:47.776Z,44.38
2022-10-17T01:22:21.058Z,41.17
2022-10-17T01:25:02.545Z,42.03
2022-10-17T01:27:48.569Z,42.55
2022-10-17T01:30:45.329Z,45.10
2022-10-17T01:33:20.593Z,42.03
2022-10-17T01:35:55.965Z,43.22
2022-10-17T01:38:28.011Z,42.17
2022-10-17T01:41:02.973Z,41.47
2022-10-17T01:43:35.319Z,42.00
2022-10-17T01:46:11.293Z,40.92
2022-10-17T01:48:41.415Z,41.58
2022-10-17T01:51:13.439Z,39.47
2022-10-17T01:53:47.725Z,40.33
2022-10-17T01:56:17.073Z,41.05
2022-10-17T01:58:50.065Z,40.40
2022-10-17T02:01:20.876Z,42.88
2022-10-17T02:03:52.158Z,42.40
2022-10-17T02:06:20.320Z,48.22
2022-10-17T02:08:50.163Z,45.88
2022-10-17T02:11:20.533Z,46.40
2022-10-17T02:14:14.316Z,42.33
2022-10-17T02:16:50.797Z,46.38
2022-10-17T02:19:36.723Z,47.00
2022-10-17T02:22:15.727Z,48.67
2022-10-17T02:24:51.083Z,48.10
2022-10-17T02:27:33.661Z,43.03
2022-10-17T02:30:08.046Z,43.00
2022-10-17T02:32:46.726Z,46.70
2022-10-17T02:35:20.741Z,49.53
2022-10-17T02:37:49.859Z,47.60
2022-10-17T02:40:22.002Z,48.70
2022-10-17T02:42:52.449Z,48.55
2022-10-17T02:45:20.791Z,47.15
2022-10-17T02:47:56.758Z,48.42
2022-10-17T02:50:33.289Z,47.78
2022-10-17T02:53:06.958Z,49.25
2022-10-17T02:55:38.564Z,46.38
2022-10-17T02:58:11.898Z,50.45
2022-10-17T03:00:41.779Z,44.45
2022-10-17T03:03:22.620Z,44.20
2022-10-17T03:05:50.881Z,46.83
2022-10-17T03:08:19.221Z,44.55
2022-10-17T03:10:47.262Z,45.97
2022-10-17T03:13:15.502Z,46.85
2022-10-17T03:15:43.616Z,42.72
2022-10-17T03:18:11.882Z,48.15
2022-10-17T03:20:41.322Z,48.20
2022-10-17T03:23:09.604Z,50.80
2022-10-17T03:25:37.669Z,44.25
2022-10-17T03:28:06.222Z,47.97
2022-10-17T03:30:35.045Z,49.63
2022-10-17T03:33:03.053Z,43.55
2022-10-17T03:35:31.347Z,46.13
2022-10-17T03:38:00.778Z,48.45
2022-10-17T03:40:28.808Z,46.75
2022-10-17T03:42:57.354Z,48.15
2022-10-17T03:45:25.408Z,47.88
2022-10-17T03:47:53.803Z,45.03
2022-10-17T03:50:21.896Z,46.17
2022-10-17T03:52:50.716Z,47.90
2022-10-17T03:55:20.177Z,45.35
2022-10-17T03:57:48.219Z,48.20
2022-10-17T04:00:17.131Z,48.20
2022-10-17T04:02:45.709Z,53.33
2022-10-17T04:05:13.753Z,46.60
2022-10-17T04:07:41.800Z,50.30
2022-10-17T04:10:10.918Z,49.92
2022-10-17T04:12:40.554Z,53.45
2022-10-17T04:15:09.799Z,48.20
2022-10-17T04:17:38.331Z,51.17
2022-10-17T04:20:07.362Z,50.23
2022-10-17T04:22:35.545Z,42.15
2022-10-17T04:25:04.428Z,48.80
2022-10-17T04:27:32.531Z,47.75
2022-10-17T04:30:02.087Z,50.42
2022-10-17T04:34:58.467Z,44.05
2022-10-17T04:37:26.526Z,45.83
2022-10-17T04:39:54.717Z,45.10
2022-10-17T04:42:22.792Z,49.30
2022-10-17T04:44:50.878Z,48.10
2022-10-17T04:47:20.422Z,47.83
2022-10-17T04:52:17.365Z,48.03
2022-10-17T04:54:45.402Z,48.05
2022-10-17T04:57:13.638Z,48.97
2022-10-17T04:59:41.701Z,47.58
2022-10-17T05:02:09.780Z,47.72
2022-10-17T05:04:39.295Z,45.33
2022-10-17T05:09:35.288Z,44.45
2022-10-17T05:12:05.417Z,46.95
2022-10-17T05:14:36.099Z,47.00
2022-10-17T05:17:04.198Z,47.58
2022-10-17T05:19:32.200Z,46.20
2022-10-17T05:22:01.664Z,46.22
2022-10-17T05:24:29.823Z,47.30
2022-10-17T05:26:57.884Z,44.60
2022-10-17T05:29:25.957Z,44.88
2022-10-17T05:31:54.038Z,45.80
2022-10-17T05:34:22.109Z,45.75
2022-10-17T05:36:50.343Z,43.30
2022-10-17T05:39:20.143Z,45.20
2022-10-17T05:41:48.626Z,46.72
2022-10-17T05:44:16.807Z,44.00
2022-10-17T05:46:45.135Z,46.88
2022-10-17T05:49:19.614Z,42.50
2022-10-17T05:51:53.521Z,46.35
2022-10-17T05:54:22.957Z,43.08
2022-10-17T05:56:53.055Z,43.15
2022-10-17T05:59:21.705Z,46.05
2022-10-17T06:01:49.888Z,42.10
2022-10-17T06:04:18.025Z,43.13
2022-10-17T06:06:46.109Z,41.80
2022-10-17T06:09:14.772Z,44.33
2022-10-17T06:11:44.201Z,42.80
2022-10-17T06:14:12.275Z,43.85
2022-10-17T06:16:40.349Z,47.40
2022-10-17T06:19:08.502Z,54.50
2022-10-17T06:21:38.612Z,50.05
2022-10-17T06:24:06.771Z,42.90
2022-10-17T06:26:34.860Z,45.25
2022-10-17T06:29:04.498Z,40.88
2022-10-17T06:31:32.666Z,43.97
2022-10-17T06:34:00.738Z,40.65
2022-10-17T06:36:28.876Z,46.55
2022-10-17T06:38:56.965Z,42.13
2022-10-17T06:41:25.338Z,46.13
2022-10-17T06:43:53.609Z,45.33
2022-10-17T06:46:25.437Z,46.38
2022-10-17T06:48:53.613Z,44.67
2022-10-17T06:51:21.669Z,45.53
2022-10-17T06:53:49.699Z,45.83
2022-10-17T06:56:19.376Z,44.90
2022-10-17T06:58:49.377Z,51.13
2022-10-17T07:01:18.492Z,42.35
2022-10-17T07:03:49.706Z,48.83
2022-10-17T07:06:18.027Z,45.67
2022-10-17T07:08:47.009Z,48.25
2022-10-17T07:11:17.149Z,42.50
2022-10-17T07:13:45.743Z,47.90
2022-10-17T07:16:14.590Z,49.50
2022-10-17T07:18:43.025Z,50.63
2022-10-17T07:21:12.422Z,49.30
2022-10-17T07:23:41.610Z,47.40
2022-10-17T07:26:11.775Z,47.95
2022-10-17T07:28:41.853Z,41.85
2022-10-17T07:31:14.988Z,43.05
2022-10-17T07:33:43.552Z,43.38
2022-10-17T07:36:13.741Z,44.07
2022-10-17T07:38:42.354Z,42.63
2022-10-17T07:41:13.119Z,36.57
2022-10-17T07:43:43.033Z,40.97
2022-10-17T07:46:12.409Z,41.13
2022-10-17T07:48:41.368Z,42.65
2022-10-17T07:51:11.822Z,43.10
2022-10-17T07:53:42.752Z,43.30
2022-10-17T07:56:13.337Z,40.60
2022-10-17T07:58:41.424Z,41.05
2022-10-17T08:01:15.506Z,43.03
2022-10-17T08:03:45.835Z,44.25
2022-10-17T08:06:15.717Z,42.20
2022-10-17T08:08:44.305Z,43.70
2022-10-17T08:11:14.146Z,38.37
2022-10-17T08:13:42.858Z,40.13
2022-10-17T08:16:12.881Z,42.22
2022-10-17T08:18:42.723Z,40.40
2022-10-17T08:21:11.250Z,41.08
2022-10-17T08:23:40.973Z,39.95
2022-10-17T08:26:10.885Z,42.40
2022-10-17T08:28:40.140Z,38.88
2022-10-17T08:31:10.534Z,38.63
2022-10-17T08:33:39.377Z,41.50
2022-10-17T08:38:43.193Z,37.28
2022-10-17T08:41:20.781Z,37.92
2022-10-17T08:44:02.143Z,36.67
2022-10-17T08:46:33.658Z,38.33
2022-10-17T08:49:04.510Z,36.67
2022-10-17T08:51:37.856Z,40.47
2022-10-17T08:54:14.082Z,39.10
2022-10-17T08:56:49.567Z,44.47
2022-10-17T08:59:22.676Z,41.05
2022-10-17T09:01:58.365Z,39.38
2022-10-17T09:04:46.834Z,38.80
2022-10-17T09:07:21.202Z,39.33
2022-10-17T09:10:01.175Z,39.38
2022-10-17T09:12:41.606Z,40.28
2022-10-17T09:15:39.726Z,36.22
2022-10-17T09:18:15.879Z,38.35
2022-10-17T09:20:51.667Z,38.05
2022-10-17T09:23:23.668Z,38.70
2022-10-17T09:25:56.254Z,39.08
2022-10-17T09:28:31.843Z,39.35
2022-10-17T09:31:03.190Z,38.30
2022-10-17T09:33:53.429Z,37.60
2022-10-17T09:36:25.368Z,35.17
2022-10-17T09:38:55.464Z,37.42
2022-10-17T09:44:24.626Z,34.97
2022-10-17T09:47:11.192Z,35.83
2022-10-17T09:49:41.077Z,34.20
2022-10-17T09:52:15.001Z,34.92
2022-10-17T09:54:46.125Z,33.92
2022-10-17T09:57:15.844Z,32.90
2022-10-17T09:59:47.181Z,33.35
2022-10-17T10:02:22.045Z,35.13
2022-10-17T10:05:07.428Z,38.75
2022-10-17T10:07:38.138Z,39.92
2022-10-17T10:10:08.813Z,34.75
2022-10-17T10:12:38.788Z,35.45
2022-10-17T10:18:01.826Z,33.80
2022-10-17T10:20:34.117Z,34.47
2022-10-17T10:23:13.598Z,34.08
2022-10-17T10:28:19.298Z,34.80
2022-10-17T10:30:51.108Z,34.38
2022-10-17T10:33:23.259Z,34.70
2022-10-17T10:35:58.485Z,35.03
2022-10-17T10:38:26.870Z,34.03
2022-10-17T10:40:57.143Z,36.53
2022-10-17T10:43:36.937Z,36.40
2022-10-17T10:46:07.192Z,37.58
2022-10-17T10:48:38.028Z,38.30
2022-10-17T10:51:13.492Z,41.28
2022-10-17T10:53:48.359Z,36.38
2022-10-17T10:56:19.847Z,34.92
2022-10-17T10:58:54.650Z,34.70
2022-10-17T11:01:30.860Z,35.80
2022-10-17T11:04:14.479Z,35.65
2022-10-17T11:06:45.300Z,36.50
2022-10-17T11:09:24.482Z,35.33
2022-10-17T11:11:59.405Z,38.17
2022-10-17T11:14:38.114Z,35.67
2022-10-17T11:17:14.540Z,35.72
2022-10-17T11:19:49.790Z,36.15
2022-10-17T11:22:28.181Z,34.33
2022-10-17T11:25:00.794Z,33.55
2022-10-17T11:27:30.593Z,37.08
2022-10-17T11:29:59.507Z,35.15
2022-10-17T11:32:32.705Z,36.33
2022-10-17T11:35:06.726Z,34.40
2022-10-17T11:37:40.629Z,35.38
2022-10-17T11:40:19.205Z,35.47
2022-10-17T11:43:00.223Z,36.20
2022-10-17T11:45:31.868Z,36.53
2022-10-17T11:48:05.264Z,36.78
2022-10-17T11:53:28.320Z,35.90
2022-10-17T11:55:59.297Z,36.85
2022-10-17T11:58:38.551Z,37.67
2022-10-17T12:01:16.302Z,36.70
2022-10-17T12:04:06.339Z,36.10
2022-10-17T12:06:49.903Z,35.80
2022-10-17T12:09:26.067Z,36.00
2022-10-17T12:11:56.297Z,35.65
2022-10-17T12:14:40.666Z,39.22
2022-10-17T12:17:34.790Z,36.42
2022-10-17T12:20:28.723Z,37.70
2022-10-17T12:23:01.955Z,33.88
2022-10-17T12:25:33.589Z,33.55
2022-10-17T12:28:16.973Z,32.58
2022-10-17T12:30:53.538Z,34.13
2022-10-17T12:33:23.836Z,32.15
2022-10-17T12:36:13.372Z,31.63
2022-10-17T12:38:45.714Z,31.02
2022-10-17T12:41:15.980Z,31.15
2022-10-17T12:43:53.483Z,30.70
2022-10-17T12:46:57.423Z,29.13
2022-10-17T12:49:52.024Z,26.65
2022-10-17T12:52:24.981Z,29.27
2022-10-17T12:55:16.523Z,28.77
2022-10-17T12:57:52.352Z,28.55
2022-10-17T13:00:30.185Z,28.20
2022-10-17T13:03:05.269Z,27.25
2022-10-17T13:05:36.980Z,28.15
2022-10-17T13:08:07.884Z,27.27
2022-10-17T13:10:43.013Z,27.15
2022-10-17T13:13:17.465Z,24.35
2022-10-17T13:15:47.989Z,25.23
2022-10-17T13:18:21.845Z,25.15
2022-10-17T13:20:58.010Z,25.88
2022-10-17T13:23:27.039Z,25.95
2022-10-17T13:26:16.122Z,26.85
2022-10-17T13:28:44.438Z,23.85
2022-10-17T13:31:33.138Z,23.77
2022-10-17T13:34:02.976Z,24.02
2022-10-17T13:36:32.802Z,22.73
2022-10-17T13:39:07.618Z,23.65
2022-10-17T13:41:38.903Z,23.27
2022-10-17T13:44:14.742Z,22.65
2022-10-17T13:46:43.923Z,21.25
2022-10-17T13:49:18.959Z,22.83
2022-10-17T13:51:49.597Z,23.27
2022-10-17T13:54:40.176Z,21.50
2022-10-17T13:57:21.476Z,22.45
2022-10-17T13:59:52.513Z,21.85
2022-10-17T14:02:23.651Z,24.10
2022-10-17T14:05:16.721Z,24.67
2022-10-17T14:08:10.583Z,22.85
2022-10-17T14:10:41.228Z,25.30
2022-10-17T14:13:21.979Z,24.98
2022-10-17T14:15:51.051Z,25.75
2022-10-17T14:18:21.883Z,25.20
2022-10-17T14:21:32.118Z,25.73
2022-10-17T14:26:12.627Z,27.23
2022-10-17T14:28:44.535Z,26.83
2022-10-17T14:31:25.428Z,26.52
2022-10-17T14:33:54.662Z,28.30
2022-10-17T14:36:32.484Z,26.95
2022-10-17T14:39:01.875Z,27.02
2022-10-17T14:41:48.607Z,27.98
2022-10-17T14:44:30.128Z,26.75
2022-10-17T14:47:03.435Z,26.08
2022-10-17T14:52:27.762Z,26.75
2022-10-17T14:54:56.377Z,28.10
2022-10-17T14:57:27.659Z,26.77
2022-10-17T14:59:58.062Z,29.02
2022-10-17T15:02:27.388Z,29.45
2022-10-17T15:04:55.828Z,27.98
2022-10-17T15:07:24.577Z,27.98
2022-10-17T15:09:54.402Z,26.25
2022-10-17T15:12:24.771Z,28.13
2022-10-17T15:14:53.460Z,26.67
2022-10-17T15:17:25.846Z,26.80
2022-10-17T15:19:54.270Z,29.83
2022-10-17T15:22:22.307Z,29.80
2022-10-17T15:24:50.627Z,29.40
2022-10-17T15:27:20.091Z,27.65
2022-10-17T15:29:48.828Z,27.38
2022-10-17T15:32:17.632Z,28.70
2022-10-17T15:34:47.394Z,30.35
2022-10-17T15:37:20.730Z,28.20
2022-10-17T15:39:53.330Z,30.48
2022-10-17T15:42:22.979Z,29.73
2022-10-17T15:44:50.953Z,29.67
2022-10-17T15:47:25.300Z,30.33
2022-10-17T15:49:54.761Z,29.40
2022-10-17T15:54:50.825Z,31.23
2022-10-17T15:57:22.117Z,30.80
2022-10-17T15:59:51.871Z,34.83
2022-10-17T16:02:21.718Z,33.10
2022-10-17T16:04:51.008Z,35.10
2022-10-17T16:07:21.392Z,30.95
2022-10-17T16:09:49.661Z,31.25
2022-10-17T16:12:19.721Z,35.67
2022-10-17T16:14:47.885Z,37.17
2022-10-17T16:17:17.104Z,35.05
2022-10-17T16:19:45.423Z,41.85
2022-10-17T16:22:32.444Z,41.75
2022-10-17T16:25:07.789Z,42.22
2022-10-17T16:27:36.321Z,36.17
2022-10-17T16:30:05.722Z,32.53
2022-10-17T16:32:33.809Z,33.42
2022-10-17T16:35:01.881Z,31.77
2022-10-17T16:37:31.257Z,32.95
2022-10-17T16:39:59.429Z,32.55
2022-10-17T16:42:27.565Z,30.95
2022-10-17T16:44:55.689Z,32.15
2022-10-17T16:47:23.707Z,32.97
2022-10-17T16:49:51.727Z,30.98
2022-10-17T16:52:19.771Z,36.88
2022-10-17T16:54:49.137Z,36.03
2022-10-17T16:57:17.312Z,34.47
2022-10-17T16:59:45.384Z,34.63
2022-10-17T17:02:16.356Z,32.78
2022-10-17T17:04:47.507Z,34.13
2022-10-17T17:07:17.852Z,35.42
2022-10-17T17:09:45.850Z,32.97
2022-10-17T17:12:15.342Z,33.20
2022-10-17T17:17:19.475Z,36.17
2022-10-17T17:19:58.548Z,42.25
2022-10-17T17:22:26.609Z,39.00
2022-10-17T17:24:54.602Z,39.67
2022-10-17T17:27:25.085Z,36.50
2022-10-17T17:29:53.060Z,40.80
2022-10-17T17:32:21.000Z,39.85
2022-10-17T17:34:48.974Z,39.03
2022-10-17T17:37:17.059Z,37.13
2022-10-17T17:39:45.040Z,38.83
2022-10-17T17:42:13.053Z,37.95
2022-10-17T17:44:42.476Z,34.25
2022-10-17T17:47:10.487Z,33.75
2022-10-17T17:49:38.460Z,34.72
2022-10-17T17:52:06.550Z,33.88
2022-10-17T17:54:38.512Z,35.20
2022-10-17T17:57:08.904Z,37.00
2022-10-17T17:59:39.268Z,35.63
2022-10-17T18:02:08.885Z,34.28
2022-10-17T18:04:36.985Z,32.90
2022-10-17T18:07:13.312Z,33.38
2022-10-17T18:09:41.416Z,32.25
2022-10-17T18:12:09.599Z,30.63
2022-10-17T18:14:37.641Z,34.03
2022-10-17T18:17:05.608Z,32.42
2022-10-17T18:19:35.021Z,32.72
2022-10-17T18:22:03.225Z,33.90
2022-10-17T18:24:31.226Z,34.55
2022-10-17T18:26:59.958Z,35.17
2022-10-17T18:29:29.403Z,35.92
2022-10-17T18:31:57.481Z,33.28
2022-10-17T18:34:25.600Z,33.92
2022-10-17T18:36:54.961Z,36.38
2022-10-17T18:39:23.071Z,45.22
2022-10-17T18:41:51.089Z,35.63
2022-10-17T18:44:19.024Z,36.28
2022-10-17T18:46:47.166Z,39.22
2022-10-17T18:49:18.822Z,37.28
2022-10-17T18:51:47.367Z,41.40
2022-10-17T18:54:20.477Z,53.23
2022-10-17T18:56:48.597Z,47.00
2022-10-17T18:59:16.965Z,46.00
2022-10-17T19:01:44.987Z,81.55
2022-10-17T19:04:13.962Z,66.45
2022-10-17T19:06:42.768Z,46.92
2022-10-17T19:09:12.868Z,53.63
2022-10-17T19:11:43.057Z,47.50
2022-10-17T19:14:13.986Z,43.47
2022-10-17T19:16:44.555Z,39.00
2022-10-17T19:19:14.798Z,36.08
2022-10-17T19:21:43.171Z,33.13
2022-10-17T19:24:13.958Z,34.75
2022-10-17T19:26:44.643Z,36.05
2022-10-17T19:29:14.967Z,35.55
2022-10-17T19:31:43.351Z,35.80
2022-10-17T19:34:12.027Z,37.08
2022-10-17T19:36:40.389Z,36.45
2022-10-17T19:39:11.842Z,37.80
2022-10-17T19:41:41.385Z,37.88
2022-10-17T19:46:39.170Z,36.65
2022-10-17T19:49:07.794Z,36.67
2022-10-17T19:51:35.842Z,35.97
2022-10-17T19:54:03.997Z,35.10
2022-10-17T19:56:36.683Z,36.95
2022-10-17T19:59:06.033Z,36.50
2022-10-17T20:01:38.598Z,38.97
2022-10-17T20:04:06.948Z,40.75
2022-10-17T20:06:35.500Z,45.20
2022-10-17T20:09:03.962Z,38.07
2022-10-17T20:11:32.179Z,38.47
2022-10-17T20:14:01.454Z,36.28
2022-10-17T20:16:31.245Z,35.00
2022-10-17T20:19:06.687Z,38.17
2022-10-17T20:21:36.656Z,37.45
2022-10-17T20:24:06.940Z,40.63
2022-10-17T20:26:39.080Z,39.08
2022-10-17T20:29:17.398Z,41.35
2022-10-17T20:31:46.875Z,40.08
2022-10-17T20:36:45.003Z,37.88
2022-10-17T20:39:14.760Z,42.47
2022-10-17T20:41:43.309Z,39.70
2022-10-17T20:44:12.040Z,39.77
2022-10-17T20:46:45.241Z,39.97
2022-10-17T20:49:22.185Z,40.80
2022-10-17T20:51:50.241Z,40.15
2022-10-17T20:54:18.225Z,42.22
2022-10-17T20:56:46.239Z,39.40
2022-10-17T20:59:16.983Z,39.25
2022-10-17T21:01:46.102Z,35.65
2022-10-17T21:04:44.930Z,38.38
2022-10-17T21:07:04.134Z,37.42
2022-10-17T21:14:36.284Z,39.65
2022-10-17T21:17:05.520Z,35.95
2022-10-17T21:19:33.683Z,37.20
2022-10-17T21:22:03.241Z,36.22
2022-10-17T21:26:59.479Z,33.97
2022-10-17T21:29:27.598Z,36.35
2022-10-17T21:31:55.585Z,40.58
2022-10-17T21:34:25.515Z,38.05
2022-10-17T21:36:53.775Z,37.42
2022-10-17T21:39:24.692Z,38.38
2022-10-17T21:41:52.991Z,38.03
2022-10-17T21:44:22.544Z,35.65
2022-10-17T21:49:20.396Z,34.90
2022-10-17T21:51:49.564Z,34.97
2022-10-17T21:54:18.997Z,33.38
2022-10-17T21:56:48.332Z,35.97
2022-10-17T21:59:16.859Z,35.92
2022-10-17T22:01:46.708Z,33.65
2022-10-17T22:04:16.347Z,34.58
2022-10-17T22:09:16.260Z,34.75
2022-10-17T22:11:47.088Z,35.38
2022-10-17T22:14:18.401Z,38.60
2022-10-17T22:16:47.619Z,38.75
2022-10-17T22:19:17.393Z,35.85
2022-10-17T22:21:45.785Z,33.42
2022-10-17T22:24:15.973Z,34.80
2022-10-17T22:26:44.485Z,32.35
2022-10-17T22:29:12.907Z,34.88
2022-10-17T22:31:42.499Z,34.08
2022-10-17T22:36:39.470Z,33.55
2022-10-17T22:39:07.425Z,34.38
2022-10-17T22:41:35.729Z,33.63
2022-10-17T22:44:04.311Z,34.40
2022-10-17T22:46:32.416Z,34.33
2022-10-17T22:49:02.027Z,31.50
2022-10-17T22:53:58.068Z,29.98
2022-10-17T22:56:26.134Z,30.85
2022-10-17T22:58:54.778Z,31.15
2022-10-17T23:01:26.121Z,32.10
2022-10-17T23:03:54.218Z,29.48
2022-10-17T23:06:24.204Z,28.65
2022-10-17T23:08:52.423Z,28.58
2022-10-17T23:11:21.183Z,29.23
2022-10-17T23:13:49.360Z,33.60
2022-10-17T23:16:17.869Z,30.60
2022-10-17T23:18:45.893Z,30.25
2022-10-17T23:21:14.041Z,28.17
2022-10-17T23:23:43.408Z,29.52
2022-10-17T23:26:13.159Z,27.45
2022-10-17T23:28:42.037Z,28.58
2022-10-17T23:31:12.334Z,26.13
2022-10-17T23:33:41.386Z,28.95
2022-10-17T23:36:11.015Z,27.88
2022-10-17T23:38:39.194Z,32.20
2022-10-17T23:41:09.051Z,31.42
2022-10-17T23:43:37.304Z,29.92
2022-10-17T23:46:06.712Z,28.50
2022-10-17T23:48:35.202Z,30.02
2022-10-17T23:51:03.171Z,30.27
2022-10-17T23:53:31.647Z,29.00
2022-10-17T23:55:59.648Z,30.75
2022-10-17T23:58:29.160Z,31.33
